sensor_id;sensor_type;location;lat;lon;timestamp;temperature;humidity
4306;DHT22;2166;49.926;8.608;2023-04-29T00:00:12;12.40;78.40
4306;DHT22;2166;49.926;8.608;2023-04-29T00:02:41;12.20;78.50
4306;DHT22;2166;49.926;8.608;2023-04-29T00:05:13;12.20;78.60
4306;DHT22;2166;49.926;8.608;2023-04-29T00:07:41;12.10;78.50
4306;DHT22;2166;49.926;8.608;2023-04-29T00:10:11;12.00;78.70
4306;DHT22;2166;49.926;8.608;2023-04-29T00:12:43;12.00;78.70
4306;DHT22;2166;49.926;8.608;2023-04-29T00:15:11;12.00;78.80
4306;DHT22;2166;49.926;8.608;2023-04-29T00:17:40;12.00;78.80
4306;DHT22;2166;49.926;8.608;2023-04-29T00:20:12;12.00;78.70
4306;DHT22;2166;49.926;8.608;2023-04-29T00:22:40;11.90;78.70
4306;DHT22;2166;49.926;8.608;2023-04-29T00:25:09;11.90;78.70
4306;DHT22;2166;49.926;8.608;2023-04-29T00:27:39;11.90;78.80
4306;DHT22;2166;49.926;8.608;2023-04-29T00:30:08;11.90;78.80
4306;DHT22;2166;49.926;8.608;2023-04-29T00:32:38;11.90;78.80
4306;DHT22;2166;49.926;8.608;2023-04-29T00:35:12;11.80;78.80
4306;DHT22;2166;49.926;8.608;2023-04-29T00:37:40;11.80;78.80
4306;DHT22;2166;49.926;8.608;2023-04-29T00:40:09;11.80;78.90
4306;DHT22;2166;49.926;8.608;2023-04-29T00:42:41;11.80;78.90
4306;DHT22;2166;49.926;8.608;2023-04-29T00:45:10;11.70;78.90
4306;DHT22;2166;49.926;8.608;2023-04-29T00:47:39;11.70;78.90
4306;DHT22;2166;49.926;8.608;2023-04-29T00:50:08;11.70;78.90
4306;DHT22;2166;49.926;8.608;2023-04-29T00:52:38;11.70;79.00
4306;DHT22;2166;49.926;8.608;2023-04-29T00:55:07;11.80;78.30
4306;DHT22;2166;49.926;8.608;2023-04-29T00:57:35;11.90;78.30
4306;DHT22;2166;49.926;8.608;2023-04-29T01:00:06;11.90;78.30
4306;DHT22;2166;49.926;8.608;2023-04-29T01:02:35;12.00;78.30
4306;DHT22;2166;49.926;8.608;2023-04-29T01:05:04;12.10;78.20
4306;DHT22;2166;49.926;8.608;2023-04-29T01:07:33;12.20;78.10
4306;DHT22;2166;49.926;8.608;2023-04-29T01:10:08;12.20;78.20
4306;DHT22;2166;49.926;8.608;2023-04-29T01:12:39;12.30;78.10
4306;DHT22;2166;49.926;8.608;2023-04-29T01:15:12;12.30;78.10
4306;DHT22;2166;49.926;8.608;2023-04-29T01:17:52;12.50;78.10
4306;DHT22;2166;49.926;8.608;2023-04-29T01:20:22;12.60;78.00
4306;DHT22;2166;49.926;8.608;2023-04-29T01:22:51;12.60;77.80
4306;DHT22;2166;49.926;8.608;2023-04-29T01:25:21;12.70;77.90
4306;DHT22;2166;49.926;8.608;2023-04-29T01:28:25;12.70;77.80
4306;DHT22;2166;49.926;8.608;2023-04-29T01:30:56;12.70;77.80
4306;DHT22;2166;49.926;8.608;2023-04-29T01:33:28;12.80;77.90
4306;DHT22;2166;49.926;8.608;2023-04-29T01:36:01;12.80;78.00
4306;DHT22;2166;49.926;8.608;2023-04-29T01:38:35;12.80;77.90
4306;DHT22;2166;49.926;8.608;2023-04-29T01:41:09;12.80;77.90
4306;DHT22;2166;49.926;8.608;2023-04-29T01:43:38;12.80;77.90
4306;DHT22;2166;49.926;8.608;2023-04-29T01:46:16;12.80;77.90
4306;DHT22;2166;49.926;8.608;2023-04-29T01:48:51;12.80;77.80
4306;DHT22;2166;49.926;8.608;2023-04-29T01:51:19;12.80;77.80
4306;DHT22;2166;49.926;8.608;2023-04-29T01:53:48;12.70;77.80
4306;DHT22;2166;49.926;8.608;2023-04-29T01:56:19;12.70;77.90
4306;DHT22;2166;49.926;8.608;2023-04-29T01:59:16;12.70;78.00
4306;DHT22;2166;49.926;8.608;2023-04-29T02:02:07;12.70;78.00
4306;DHT22;2166;49.926;8.608;2023-04-29T02:04:43;12.60;77.90
4306;DHT22;2166;49.926;8.608;2023-04-29T02:07:12;12.60;77.90
4306;DHT22;2166;49.926;8.608;2023-04-29T02:09:40;12.50;77.90
4306;DHT22;2166;49.926;8.608;2023-04-29T02:12:12;12.50;77.90
4306;DHT22;2166;49.926;8.608;2023-04-29T02:14:41;12.50;77.90
4306;DHT22;2166;49.926;8.608;2023-04-29T02:17:13;12.50;78.50
4306;DHT22;2166;49.926;8.608;2023-04-29T02:19:42;12.50;78.60
4306;DHT22;2166;49.926;8.608;2023-04-29T02:22:11;12.50;78.70
4306;DHT22;2166;49.926;8.608;2023-04-29T02:24:41;12.60;78.70
4306;DHT22;2166;49.926;8.608;2023-04-29T02:27:09;12.60;78.70
4306;DHT22;2166;49.926;8.608;2023-04-29T02:29:40;12.70;78.70
4306;DHT22;2166;49.926;8.608;2023-04-29T02:32:09;12.80;78.70
4306;DHT22;2166;49.926;8.608;2023-04-29T02:34:38;12.90;78.60
4306;DHT22;2166;49.926;8.608;2023-04-29T02:37:06;13.00;78.60
4306;DHT22;2166;49.926;8.608;2023-04-29T02:39:34;13.00;78.60
4306;DHT22;2166;49.926;8.608;2023-04-29T02:42:08;13.10;78.50
4306;DHT22;2166;49.926;8.608;2023-04-29T02:44:36;13.10;78.50
4306;DHT22;2166;49.926;8.608;2023-04-29T02:47:08;13.20;78.40
4306;DHT22;2166;49.926;8.608;2023-04-29T02:49:38;13.10;78.40
4306;DHT22;2166;49.926;8.608;2023-04-29T02:52:06;13.20;78.40
4306;DHT22;2166;49.926;8.608;2023-04-29T02:54:35;13.10;78.50
4306;DHT22;2166;49.926;8.608;2023-04-29T02:57:03;13.10;78.60
4306;DHT22;2166;49.926;8.608;2023-04-29T02:59:31;13.10;78.60
4306;DHT22;2166;49.926;8.608;2023-04-29T03:02:03;13.10;78.50
4306;DHT22;2166;49.926;8.608;2023-04-29T03:04:34;13.00;78.50
4306;DHT22;2166;49.926;8.608;2023-04-29T03:07:02;13.00;78.50
4306;DHT22;2166;49.926;8.608;2023-04-29T03:09:33;13.00;78.50
4306;DHT22;2166;49.926;8.608;2023-04-29T03:12:02;12.90;78.50
4306;DHT22;2166;49.926;8.608;2023-04-29T03:14:30;12.90;78.50
4306;DHT22;2166;49.926;8.608;2023-04-29T03:16:58;12.90;78.60
4306;DHT22;2166;49.926;8.608;2023-04-29T03:19:27;12.90;78.50
4306;DHT22;2166;49.926;8.608;2023-04-29T03:21:56;12.90;78.60
4306;DHT22;2166;49.926;8.608;2023-04-29T03:24:25;12.90;78.50
4306;DHT22;2166;49.926;8.608;2023-04-29T03:26:53;12.90;78.60
4306;DHT22;2166;49.926;8.608;2023-04-29T03:29:21;12.90;78.50
4306;DHT22;2166;49.926;8.608;2023-04-29T03:31:51;12.90;78.60
4306;DHT22;2166;49.926;8.608;2023-04-29T03:34:19;12.90;78.70
4306;DHT22;2166;49.926;8.608;2023-04-29T03:37:01;12.90;78.60
4306;DHT22;2166;49.926;8.608;2023-04-29T03:39:30;12.90;78.60
4306;DHT22;2166;49.926;8.608;2023-04-29T03:42:01;12.90;78.50
4306;DHT22;2166;49.926;8.608;2023-04-29T03:44:30;12.80;78.60
4306;DHT22;2166;49.926;8.608;2023-04-29T03:47:00;12.80;78.60
4306;DHT22;2166;49.926;8.608;2023-04-29T03:49:28;12.80;78.60
4306;DHT22;2166;49.926;8.608;2023-04-29T03:51:57;12.80;78.60
4306;DHT22;2166;49.926;8.608;2023-04-29T03:54:28;12.80;78.70
4306;DHT22;2166;49.926;8.608;2023-04-29T03:56:56;12.80;78.60
4306;DHT22;2166;49.926;8.608;2023-04-29T03:59:27;12.70;78.50
4306;DHT22;2166;49.926;8.608;2023-04-29T04:01:56;12.60;78.50
4306;DHT22;2166;49.926;8.608;2023-04-29T04:04:24;12.50;78.50
4306;DHT22;2166;49.926;8.608;2023-04-29T04:06:54;12.40;78.50
4306;DHT22;2166;49.926;8.608;2023-04-29T04:09:29;12.30;78.70
4306;DHT22;2166;49.926;8.608;2023-04-29T04:11:59;12.30;78.70
4306;DHT22;2166;49.926;8.608;2023-04-29T04:14:29;12.20;78.80
4306;DHT22;2166;49.926;8.608;2023-04-29T04:16:57;12.20;78.80
4306;DHT22;2166;49.926;8.608;2023-04-29T04:19:25;12.20;78.80
4306;DHT22;2166;49.926;8.608;2023-04-29T04:21:58;12.30;78.90
4306;DHT22;2166;49.926;8.608;2023-04-29T04:24:28;12.40;78.90
4306;DHT22;2166;49.926;8.608;2023-04-29T04:26:57;12.50;78.80
4306;DHT22;2166;49.926;8.608;2023-04-29T04:29:33;12.50;78.60
4306;DHT22;2166;49.926;8.608;2023-04-29T04:32:06;12.60;78.60
4306;DHT22;2166;49.926;8.608;2023-04-29T04:34:37;12.60;78.60
4306;DHT22;2166;49.926;8.608;2023-04-29T04:37:06;12.70;78.50
4306;DHT22;2166;49.926;8.608;2023-04-29T04:39:36;12.70;78.40
4306;DHT22;2166;49.926;8.608;2023-04-29T04:42:06;12.70;78.50
4306;DHT22;2166;49.926;8.608;2023-04-29T04:44:35;12.90;78.70
4306;DHT22;2166;49.926;8.608;2023-04-29T04:47:07;12.90;78.40
4306;DHT22;2166;49.926;8.608;2023-04-29T04:49:45;12.90;78.50
4306;DHT22;2166;49.926;8.608;2023-04-29T04:52:18;13.00;78.50
4306;DHT22;2166;49.926;8.608;2023-04-29T04:54:54;13.10;78.50
4306;DHT22;2166;49.926;8.608;2023-04-29T04:57:25;13.10;78.40
4306;DHT22;2166;49.926;8.608;2023-04-29T04:59:59;13.10;78.30
4306;DHT22;2166;49.926;8.608;2023-04-29T05:02:30;13.20;78.30
4306;DHT22;2166;49.926;8.608;2023-04-29T05:04:59;13.20;78.40
4306;DHT22;2166;49.926;8.608;2023-04-29T05:07:31;13.30;78.40
4306;DHT22;2166;49.926;8.608;2023-04-29T05:10:07;13.30;78.30
4306;DHT22;2166;49.926;8.608;2023-04-29T05:12:49;13.40;78.20
4306;DHT22;2166;49.926;8.608;2023-04-29T05:15:18;13.60;78.20
4306;DHT22;2166;49.926;8.608;2023-04-29T05:17:50;13.70;78.20
4306;DHT22;2166;49.926;8.608;2023-04-29T05:20:19;13.80;78.20
4306;DHT22;2166;49.926;8.608;2023-04-29T05:22:47;13.90;78.20
4306;DHT22;2166;49.926;8.608;2023-04-29T05:25:18;14.00;78.00
4306;DHT22;2166;49.926;8.608;2023-04-29T05:27:46;14.10;78.00
4306;DHT22;2166;49.926;8.608;2023-04-29T05:30:18;14.20;78.20
4306;DHT22;2166;49.926;8.608;2023-04-29T05:32:46;14.20;77.90
4306;DHT22;2166;49.926;8.608;2023-04-29T05:35:17;14.30;77.70
4306;DHT22;2166;49.926;8.608;2023-04-29T05:37:46;14.40;77.80
4306;DHT22;2166;49.926;8.608;2023-04-29T05:40:48;14.50;77.80
4306;DHT22;2166;49.926;8.608;2023-04-29T05:43:18;14.80;77.90
4306;DHT22;2166;49.926;8.608;2023-04-29T05:45:47;14.90;77.90
4306;DHT22;2166;49.926;8.608;2023-04-29T05:48:15;14.90;77.70
4306;DHT22;2166;49.926;8.608;2023-04-29T05:50:48;15.00;77.30
4306;DHT22;2166;49.926;8.608;2023-04-29T05:53:17;15.20;77.70
4306;DHT22;2166;49.926;8.608;2023-04-29T05:55:48;15.20;77.10
4306;DHT22;2166;49.926;8.608;2023-04-29T05:58:19;15.10;76.30
4306;DHT22;2166;49.926;8.608;2023-04-29T06:00:48;15.20;76.30
4306;DHT22;2166;49.926;8.608;2023-04-29T06:03:21;15.10;75.60
4306;DHT22;2166;49.926;8.608;2023-04-29T06:05:57;15.20;75.90
4306;DHT22;2166;49.926;8.608;2023-04-29T06:08:46;15.60;76.00
4306;DHT22;2166;49.926;8.608;2023-04-29T06:11:21;15.80;74.60
4306;DHT22;2166;49.926;8.608;2023-04-29T06:13:52;15.90;75.50
4306;DHT22;2166;49.926;8.608;2023-04-29T06:16:22;15.90;74.50
4306;DHT22;2166;49.926;8.608;2023-04-29T06:18:52;15.90;74.40
4306;DHT22;2166;49.926;8.608;2023-04-29T06:21:37;16.00;74.50
4306;DHT22;2166;49.926;8.608;2023-04-29T06:24:07;16.10;73.70
4306;DHT22;2166;49.926;8.608;2023-04-29T06:26:37;16.40;74.10
4306;DHT22;2166;49.926;8.608;2023-04-29T06:29:05;16.60;73.60
4306;DHT22;2166;49.926;8.608;2023-04-29T06:31:36;17.00;72.70
4306;DHT22;2166;49.926;8.608;2023-04-29T06:34:06;18.40;72.40
4306;DHT22;2166;49.926;8.608;2023-04-29T06:36:48;19.50;70.60
4306;DHT22;2166;49.926;8.608;2023-04-29T06:39:42;19.70;69.10
4306;DHT22;2166;49.926;8.608;2023-04-29T06:42:22;19.20;69.60
4306;DHT22;2166;49.926;8.608;2023-04-29T06:45:09;18.60;70.30
4306;DHT22;2166;49.926;8.608;2023-04-29T06:47:44;18.20;71.20
4306;DHT22;2166;49.926;8.608;2023-04-29T06:50:23;17.70;71.00
4306;DHT22;2166;49.926;8.608;2023-04-29T06:52:52;17.40;71.50
4306;DHT22;2166;49.926;8.608;2023-04-29T06:55:21;17.30;71.60
4306;DHT22;2166;49.926;8.608;2023-04-29T06:57:51;17.10;72.20
4306;DHT22;2166;49.926;8.608;2023-04-29T07:00:21;16.80;71.80
4306;DHT22;2166;49.926;8.608;2023-04-29T07:02:49;16.80;72.60
4306;DHT22;2166;49.926;8.608;2023-04-29T07:05:19;16.70;72.70
4306;DHT22;2166;49.926;8.608;2023-04-29T07:07:47;16.70;72.70
4306;DHT22;2166;49.926;8.608;2023-04-29T07:10:17;16.80;73.70
4306;DHT22;2166;49.926;8.608;2023-04-29T07:12:46;16.80;73.10
4306;DHT22;2166;49.926;8.608;2023-04-29T07:15:16;16.80;72.10
4306;DHT22;2166;49.926;8.608;2023-04-29T07:17:45;16.80;71.90
4306;DHT22;2166;49.926;8.608;2023-04-29T07:20:13;16.60;72.00
4306;DHT22;2166;49.926;8.608;2023-04-29T07:22:41;16.70;72.10
4306;DHT22;2166;49.926;8.608;2023-04-29T07:25:13;16.60;72.40
4306;DHT22;2166;49.926;8.608;2023-04-29T07:27:43;16.60;73.20
4306;DHT22;2166;49.926;8.608;2023-04-29T07:30:12;16.60;72.40
4306;DHT22;2166;49.926;8.608;2023-04-29T07:32:41;16.80;72.40
4306;DHT22;2166;49.926;8.608;2023-04-29T07:35:10;17.10;71.40
4306;DHT22;2166;49.926;8.608;2023-04-29T07:37:39;17.50;71.70
4306;DHT22;2166;49.926;8.608;2023-04-29T07:40:10;18.00;71.10
4306;DHT22;2166;49.926;8.608;2023-04-29T07:42:39;18.70;70.00
4306;DHT22;2166;49.926;8.608;2023-04-29T07:45:07;19.30;67.70
4306;DHT22;2166;49.926;8.608;2023-04-29T07:47:38;19.50;66.60
4306;DHT22;2166;49.926;8.608;2023-04-29T07:50:09;19.40;65.60
4306;DHT22;2166;49.926;8.608;2023-04-29T07:52:43;19.40;67.10
4306;DHT22;2166;49.926;8.608;2023-04-29T07:55:15;19.30;66.20
4306;DHT22;2166;49.926;8.608;2023-04-29T07:57:45;19.10;65.60
4306;DHT22;2166;49.926;8.608;2023-04-29T08:00:13;18.80;65.50
4306;DHT22;2166;49.926;8.608;2023-04-29T08:02:43;19.20;67.00
4306;DHT22;2166;49.926;8.608;2023-04-29T08:05:17;20.30;63.60
4306;DHT22;2166;49.926;8.608;2023-04-29T08:07:47;21.00;61.70
4306;DHT22;2166;49.926;8.608;2023-04-29T08:10:15;21.40;60.40
4306;DHT22;2166;49.926;8.608;2023-04-29T08:12:44;21.20;61.00
4306;DHT22;2166;49.926;8.608;2023-04-29T08:15:12;20.90;62.10
4306;DHT22;2166;49.926;8.608;2023-04-29T08:17:41;20.40;62.20
4306;DHT22;2166;49.926;8.608;2023-04-29T08:20:10;20.10;62.60
4306;DHT22;2166;49.926;8.608;2023-04-29T08:22:40;19.50;63.70
4306;DHT22;2166;49.926;8.608;2023-04-29T08:25:09;19.00;63.80
4306;DHT22;2166;49.926;8.608;2023-04-29T08:27:38;18.50;66.90
4306;DHT22;2166;49.926;8.608;2023-04-29T08:30:09;18.30;66.70
4306;DHT22;2166;49.926;8.608;2023-04-29T08:32:37;18.20;68.70
4306;DHT22;2166;49.926;8.608;2023-04-29T08:35:06;18.20;68.10
4306;DHT22;2166;49.926;8.608;2023-04-29T08:37:35;18.30;67.30
4306;DHT22;2166;49.926;8.608;2023-04-29T08:40:06;18.40;66.80
4306;DHT22;2166;49.926;8.608;2023-04-29T08:42:35;18.40;67.30
4306;DHT22;2166;49.926;8.608;2023-04-29T08:45:04;18.40;67.10
4306;DHT22;2166;49.926;8.608;2023-04-29T08:47:33;18.20;67.10
4306;DHT22;2166;49.926;8.608;2023-04-29T08:50:03;18.20;67.60
4306;DHT22;2166;49.926;8.608;2023-04-29T08:52:34;18.30;67.40
4306;DHT22;2166;49.926;8.608;2023-04-29T08:55:03;18.20;68.00
4306;DHT22;2166;49.926;8.608;2023-04-29T08:57:34;18.10;67.80
4306;DHT22;2166;49.926;8.608;2023-04-29T09:00:06;18.10;68.00
4306;DHT22;2166;49.926;8.608;2023-04-29T09:02:37;18.10;67.60
4306;DHT22;2166;49.926;8.608;2023-04-29T09:05:07;18.20;67.60
4306;DHT22;2166;49.926;8.608;2023-04-29T09:07:37;18.30;68.20
4306;DHT22;2166;49.926;8.608;2023-04-29T09:10:05;18.60;66.50
4306;DHT22;2166;49.926;8.608;2023-04-29T09:12:36;18.60;67.50
4306;DHT22;2166;49.926;8.608;2023-04-29T09:15:05;18.40;66.80
4306;DHT22;2166;49.926;8.608;2023-04-29T09:17:41;18.60;67.70
4306;DHT22;2166;49.926;8.608;2023-04-29T09:20:29;18.60;67.30
4306;DHT22;2166;49.926;8.608;2023-04-29T09:22:58;18.80;66.30
4306;DHT22;2166;49.926;8.608;2023-04-29T09:25:27;18.60;66.30
4306;DHT22;2166;49.926;8.608;2023-04-29T09:27:57;18.40;66.90
4306;DHT22;2166;49.926;8.608;2023-04-29T09:30:26;18.30;67.20
4306;DHT22;2166;49.926;8.608;2023-04-29T09:33:06;18.30;67.30
4306;DHT22;2166;49.926;8.608;2023-04-29T09:35:38;18.10;68.00
4306;DHT22;2166;49.926;8.608;2023-04-29T09:38:08;18.00;67.80
4306;DHT22;2166;49.926;8.608;2023-04-29T09:40:38;17.90;68.50
4306;DHT22;2166;49.926;8.608;2023-04-29T09:43:25;18.00;68.30
4306;DHT22;2166;49.926;8.608;2023-04-29T09:45:53;18.10;68.20
4306;DHT22;2166;49.926;8.608;2023-04-29T09:48:22;18.20;68.70
4306;DHT22;2166;49.926;8.608;2023-04-29T09:50:58;18.30;68.50
4306;DHT22;2166;49.926;8.608;2023-04-29T09:53:28;18.10;68.50
4306;DHT22;2166;49.926;8.608;2023-04-29T09:55:58;18.20;68.60
4306;DHT22;2166;49.926;8.608;2023-04-29T09:58:28;18.30;68.20
4306;DHT22;2166;49.926;8.608;2023-04-29T10:00:57;18.40;67.30
4306;DHT22;2166;49.926;8.608;2023-04-29T10:03:29;18.30;67.20
4306;DHT22;2166;49.926;8.608;2023-04-29T10:05:58;18.40;67.70
4306;DHT22;2166;49.926;8.608;2023-04-29T10:08:28;18.40;67.50
4306;DHT22;2166;49.926;8.608;2023-04-29T10:10:58;18.60;67.50
4306;DHT22;2166;49.926;8.608;2023-04-29T10:13:30;18.60;67.20
4306;DHT22;2166;49.926;8.608;2023-04-29T10:16:08;18.30;67.30
4306;DHT22;2166;49.926;8.608;2023-04-29T10:18:40;17.90;68.50
4306;DHT22;2166;49.926;8.608;2023-04-29T10:21:08;17.60;68.90
4306;DHT22;2166;49.926;8.608;2023-04-29T10:23:37;17.30;69.40
4306;DHT22;2166;49.926;8.608;2023-04-29T10:26:09;17.20;69.90
4306;DHT22;2166;49.926;8.608;2023-04-29T10:28:40;17.10;70.50
4306;DHT22;2166;49.926;8.608;2023-04-29T10:31:09;17.00;70.70
4306;DHT22;2166;49.926;8.608;2023-04-29T10:33:37;16.70;71.30
4306;DHT22;2166;49.926;8.608;2023-04-29T10:36:08;16.60;71.90
4306;DHT22;2166;49.926;8.608;2023-04-29T10:38:38;16.70;71.70
4306;DHT22;2166;49.926;8.608;2023-04-29T10:41:08;16.80;71.50
4306;DHT22;2166;49.926;8.608;2023-04-29T10:43:37;17.00;71.00
4306;DHT22;2166;49.926;8.608;2023-04-29T10:46:20;17.10;71.40
4306;DHT22;2166;49.926;8.608;2023-04-29T10:48:49;17.00;71.00
4306;DHT22;2166;49.926;8.608;2023-04-29T10:51:28;17.00;70.90
4306;DHT22;2166;49.926;8.608;2023-04-29T10:53:58;17.10;71.10
4306;DHT22;2166;49.926;8.608;2023-04-29T10:56:34;17.10;70.80
4306;DHT22;2166;49.926;8.608;2023-04-29T10:59:02;17.40;71.20
4306;DHT22;2166;49.926;8.608;2023-04-29T11:01:46;17.60;70.10
4306;DHT22;2166;49.926;8.608;2023-04-29T11:04:15;17.70;71.40
4306;DHT22;2166;49.926;8.608;2023-04-29T11:06:47;17.30;70.90
4306;DHT22;2166;49.926;8.608;2023-04-29T11:09:19;16.90;72.40
4306;DHT22;2166;49.926;8.608;2023-04-29T11:11:55;16.60;72.90
4306;DHT22;2166;49.926;8.608;2023-04-29T11:14:28;16.40;72.90
4306;DHT22;2166;49.926;8.608;2023-04-29T11:16:59;16.40;72.70
4306;DHT22;2166;49.926;8.608;2023-04-29T11:19:29;16.50;72.80
4306;DHT22;2166;49.926;8.608;2023-04-29T11:22:03;16.60;72.50
4306;DHT22;2166;49.926;8.608;2023-04-29T11:24:32;16.80;72.10
4306;DHT22;2166;49.926;8.608;2023-04-29T11:27:01;16.90;71.80
4306;DHT22;2166;49.926;8.608;2023-04-29T11:29:31;17.00;71.30
4306;DHT22;2166;49.926;8.608;2023-04-29T11:32:02;17.00;70.20
4306;DHT22;2166;49.926;8.608;2023-04-29T11:34:32;16.90;70.40
4306;DHT22;2166;49.926;8.608;2023-04-29T11:37:00;16.90;69.90
4306;DHT22;2166;49.926;8.608;2023-04-29T11:39:29;17.00;69.90
4306;DHT22;2166;49.926;8.608;2023-04-29T11:42:04;17.30;69.30
4306;DHT22;2166;49.926;8.608;2023-04-29T11:44:33;17.70;68.70
4306;DHT22;2166;49.926;8.608;2023-04-29T11:47:05;18.40;66.30
4306;DHT22;2166;49.926;8.608;2023-04-29T11:49:33;18.60;64.80
4306;DHT22;2166;49.926;8.608;2023-04-29T11:52:03;19.10;63.40
4306;DHT22;2166;49.926;8.608;2023-04-29T11:54:31;19.80;62.50
4306;DHT22;2166;49.926;8.608;2023-04-29T11:57:00;20.60;60.10
4306;DHT22;2166;49.926;8.608;2023-04-29T11:59:29;20.90;59.40
4306;DHT22;2166;49.926;8.608;2023-04-29T12:01:58;21.40;57.30
4306;DHT22;2166;49.926;8.608;2023-04-29T12:04:29;22.40;56.30
4306;DHT22;2166;49.926;8.608;2023-04-29T12:06:57;23.80;54.50
4306;DHT22;2166;49.926;8.608;2023-04-29T12:09:25;24.80;51.10
4306;DHT22;2166;49.926;8.608;2023-04-29T12:11:54;25.80;48.20
4306;DHT22;2166;49.926;8.608;2023-04-29T12:14:23;26.30;48.10
4306;DHT22;2166;49.926;8.608;2023-04-29T12:16:52;26.60;47.50
4306;DHT22;2166;49.926;8.608;2023-04-29T12:19:21;27.20;45.70
4306;DHT22;2166;49.926;8.608;2023-04-29T12:21:52;27.10;45.30
4306;DHT22;2166;49.926;8.608;2023-04-29T12:24:21;27.40;46.20
4306;DHT22;2166;49.926;8.608;2023-04-29T12:26:49;28.20;44.80
4306;DHT22;2166;49.926;8.608;2023-04-29T12:29:19;28.50;44.00
4306;DHT22;2166;49.926;8.608;2023-04-29T12:31:49;28.40;44.40
4306;DHT22;2166;49.926;8.608;2023-04-29T12:34:23;28.40;44.40
4306;DHT22;2166;49.926;8.608;2023-04-29T12:36:55;27.60;44.00
4306;DHT22;2166;49.926;8.608;2023-04-29T12:39:23;27.40;45.00
4306;DHT22;2166;49.926;8.608;2023-04-29T12:41:53;27.60;45.50
4306;DHT22;2166;49.926;8.608;2023-04-29T12:44:22;28.20;45.20
4306;DHT22;2166;49.926;8.608;2023-04-29T12:46:50;28.70;43.20
4306;DHT22;2166;49.926;8.608;2023-04-29T12:49:24;27.90;43.80
4306;DHT22;2166;49.926;8.608;2023-04-29T12:51:56;27.10;45.10
4306;DHT22;2166;49.926;8.608;2023-04-29T12:54:24;26.80;46.60
4306;DHT22;2166;49.926;8.608;2023-04-29T12:56:53;26.50;45.60
4306;DHT22;2166;49.926;8.608;2023-04-29T12:59:21;25.80;46.80
4306;DHT22;2166;49.926;8.608;2023-04-29T13:01:53;25.20;49.10
4306;DHT22;2166;49.926;8.608;2023-04-29T13:04:22;25.20;48.30
4306;DHT22;2166;49.926;8.608;2023-04-29T13:06:50;24.90;49.70
4306;DHT22;2166;49.926;8.608;2023-04-29T13:09:27;24.40;49.10
4306;DHT22;2166;49.926;8.608;2023-04-29T13:11:56;23.40;50.20
4306;DHT22;2166;49.926;8.608;2023-04-29T13:14:25;22.50;53.40
4306;DHT22;2166;49.926;8.608;2023-04-29T13:16:54;22.10;54.80
4306;DHT22;2166;49.926;8.608;2023-04-29T13:19:23;21.90;54.70
4306;DHT22;2166;49.926;8.608;2023-04-29T13:22:12;21.60;55.00
4306;DHT22;2166;49.926;8.608;2023-04-29T13:24:43;21.30;56.00
4306;DHT22;2166;49.926;8.608;2023-04-29T13:27:13;20.80;57.10
4306;DHT22;2166;49.926;8.608;2023-04-29T13:29:43;20.40;59.00
4306;DHT22;2166;49.926;8.608;2023-04-29T13:32:19;19.90;60.10
4306;DHT22;2166;49.926;8.608;2023-04-29T13:35:19;19.60;61.50
4306;DHT22;2166;49.926;8.608;2023-04-29T13:38:01;19.30;61.80
4306;DHT22;2166;49.926;8.608;2023-04-29T13:40:40;19.20;62.80
4306;DHT22;2166;49.926;8.608;2023-04-29T13:43:22;19.20;62.60
4306;DHT22;2166;49.926;8.608;2023-04-29T13:46:06;19.40;62.70
4306;DHT22;2166;49.926;8.608;2023-04-29T13:48:35;19.30;63.10
4306;DHT22;2166;49.926;8.608;2023-04-29T13:51:24;19.40;63.50
4306;DHT22;2166;49.926;8.608;2023-04-29T13:54:30;19.30;62.40
4306;DHT22;2166;49.926;8.608;2023-04-29T13:57:37;19.30;62.60
4306;DHT22;2166;49.926;8.608;2023-04-29T14:00:25;19.40;62.60
4306;DHT22;2166;49.926;8.608;2023-04-29T14:03:17;19.50;62.50
4306;DHT22;2166;49.926;8.608;2023-04-29T14:05:47;19.50;62.40
4306;DHT22;2166;49.926;8.608;2023-04-29T14:08:17;19.50;62.70
4306;DHT22;2166;49.926;8.608;2023-04-29T14:10:45;19.70;62.30
4306;DHT22;2166;49.926;8.608;2023-04-29T14:13:18;19.90;61.70
4306;DHT22;2166;49.926;8.608;2023-04-29T14:15:51;20.30;60.70
4306;DHT22;2166;49.926;8.608;2023-04-29T14:18:27;20.70;60.00
4306;DHT22;2166;49.926;8.608;2023-04-29T14:21:00;21.10;58.70
4306;DHT22;2166;49.926;8.608;2023-04-29T14:23:29;21.20;58.40
4306;DHT22;2166;49.926;8.608;2023-04-29T14:26:00;21.30;58.40
4306;DHT22;2166;49.926;8.608;2023-04-29T14:28:53;21.30;59.20
4306;DHT22;2166;49.926;8.608;2023-04-29T14:31:32;21.00;59.10
4306;DHT22;2166;49.926;8.608;2023-04-29T14:34:04;20.60;60.30
4306;DHT22;2166;49.926;8.608;2023-04-29T14:36:40;20.20;61.60
4306;DHT22;2166;49.926;8.608;2023-04-29T14:39:11;20.00;61.80
4306;DHT22;2166;49.926;8.608;2023-04-29T14:41:44;19.70;62.60
4306;DHT22;2166;49.926;8.608;2023-04-29T14:44:31;19.50;63.50
4306;DHT22;2166;49.926;8.608;2023-04-29T14:46:59;19.10;63.50
4306;DHT22;2166;49.926;8.608;2023-04-29T14:49:27;18.90;64.30
4306;DHT22;2166;49.926;8.608;2023-04-29T14:51:57;18.80;64.80
4306;DHT22;2166;49.926;8.608;2023-04-29T16:21:44;18.70;66.50
4306;DHT22;2166;49.926;8.608;2023-04-29T16:24:14;18.20;68.10
4306;DHT22;2166;49.926;8.608;2023-04-29T16:26:44;17.90;69.10
4306;DHT22;2166;49.926;8.608;2023-04-29T16:29:15;17.40;70.20
4306;DHT22;2166;49.926;8.608;2023-04-29T16:31:46;17.30;70.40
4306;DHT22;2166;49.926;8.608;2023-04-29T16:34:14;17.10;69.20
4306;DHT22;2166;49.926;8.608;2023-04-29T16:36:45;16.90;69.40
4306;DHT22;2166;49.926;8.608;2023-04-29T16:39:15;16.80;69.50
4306;DHT22;2166;49.926;8.608;2023-04-29T16:41:43;16.80;69.60
4306;DHT22;2166;49.926;8.608;2023-04-29T16:44:14;16.90;69.80
4306;DHT22;2166;49.926;8.608;2023-04-29T16:46:44;16.80;70.00
4306;DHT22;2166;49.926;8.608;2023-04-29T16:49:14;16.70;69.70
4306;DHT22;2166;49.926;8.608;2023-04-29T16:51:47;16.70;70.00
4306;DHT22;2166;49.926;8.608;2023-04-29T16:54:17;16.70;70.40
4306;DHT22;2166;49.926;8.608;2023-04-29T16:56:45;16.60;70.50
4306;DHT22;2166;49.926;8.608;2023-04-29T16:59:17;16.60;70.50
4306;DHT22;2166;49.926;8.608;2023-04-29T17:01:45;16.50;70.90
4306;DHT22;2166;49.926;8.608;2023-04-29T17:04:15;16.50;69.70
4306;DHT22;2166;49.926;8.608;2023-04-29T17:06:44;16.30;69.50
4306;DHT22;2166;49.926;8.608;2023-04-29T17:09:15;16.20;70.20
4306;DHT22;2166;49.926;8.608;2023-04-29T17:11:50;16.10;70.40
4306;DHT22;2166;49.926;8.608;2023-04-29T17:14:21;16.00;70.50
4306;DHT22;2166;49.926;8.608;2023-04-29T17:16:50;15.90;70.80
4306;DHT22;2166;49.926;8.608;2023-04-29T17:19:19;15.80;71.10
4306;DHT22;2166;49.926;8.608;2023-04-29T17:21:50;15.70;71.10
4306;DHT22;2166;49.926;8.608;2023-04-29T17:24:21;15.60;71.70
4306;DHT22;2166;49.926;8.608;2023-04-29T17:26:51;15.50;71.90
4306;DHT22;2166;49.926;8.608;2023-04-29T17:29:19;15.40;72.00
4306;DHT22;2166;49.926;8.608;2023-04-29T17:31:48;15.30;72.20
4306;DHT22;2166;49.926;8.608;2023-04-29T17:34:26;15.30;72.30
4306;DHT22;2166;49.926;8.608;2023-04-29T17:36:55;15.20;72.30
4306;DHT22;2166;49.926;8.608;2023-04-29T17:39:27;15.20;72.40
4306;DHT22;2166;49.926;8.608;2023-04-29T17:41:58;15.20;72.40
4306;DHT22;2166;49.926;8.608;2023-04-29T17:44:28;15.00;72.60
4306;DHT22;2166;49.926;8.608;2023-04-29T17:46:57;15.00;72.70
4306;DHT22;2166;49.926;8.608;2023-04-29T17:49:26;14.90;72.90
4306;DHT22;2166;49.926;8.608;2023-04-29T17:51:55;14.90;72.90
4306;DHT22;2166;49.926;8.608;2023-04-29T17:54:23;14.90;72.90
4306;DHT22;2166;49.926;8.608;2023-04-29T17:56:54;14.90;73.00